Arties, Catalunya

latitud = 42° 42' 01''N | longitud = 00° 52' 37''E
1161 metros sobre el nivel del mar | datos mensuales

Fecha, hora, temperatura, viento dirección y velocidad, humedad y presión.

  • 14-10-2018 19:00:00 | 13.60°C | Este |5.00 km/h | 88.00% | 0.00 hPa
  • 14-10-2018 18:00:00 | 14.80°C | Este |10.00 km/h | 76.00% | 0.00 hPa
  • 14-10-2018 17:00:00 | 16.90°C | Nordeste |11.00 km/h | 66.00% | 0.00 hPa
  • 14-10-2018 16:00:00 | 20.40°C | Nordeste |11.00 km/h | 49.00% | 0.00 hPa
  • 14-10-2018 15:00:00 | 20.70°C | Nordeste |5.00 km/h | 51.00% | 0.00 hPa
  • 14-10-2018 14:00:00 | 19.20°C | Sudoeste |3.00 km/h | 68.00% | 0.00 hPa
  • 14-10-2018 13:00:00 | 20.20°C | Calma |0.00 km/h | 50.00% | 0.00 hPa
  • 14-10-2018 12:00:00 | 18.40°C | Calma |0.00 km/h | 65.00% | 0.00 hPa
  • 14-10-2018 11:00:00 | 17.20°C | Nordeste |3.00 km/h | 71.00% | 0.00 hPa
  • 14-10-2018 10:00:00 | 16.90°C | Este |6.00 km/h | 65.00% | 0.00 hPa
  • 14-10-2018 09:00:00 | 16.00°C | Este |5.00 km/h | 68.00% | 0.00 hPa
  • 14-10-2018 08:00:00 | 16.40°C | Este |9.00 km/h | 67.00% | 0.00 hPa
  • 14-10-2018 07:00:00 | 14.50°C | Este |6.00 km/h | 75.00% | 0.00 hPa
  • 14-10-2018 06:00:00 | 15.80°C | Este |3.00 km/h | 71.00% | 0.00 hPa
  • 14-10-2018 05:00:00 | 13.40°C | Nordeste |2.00 km/h | 82.00% | 0.00 hPa
  • 14-10-2018 04:00:00 | 14.00°C | Nordeste |2.00 km/h | 79.00% | 0.00 hPa
  • 14-10-2018 03:00:00 | 14.80°C | Este |4.00 km/h | 75.00% | 0.00 hPa
  • 14-10-2018 02:00:00 | 16.70°C | Este |7.00 km/h | 66.00% | 0.00 hPa
  • 14-10-2018 01:00:00 | 16.00°C | Este |6.00 km/h | 69.00% | 0.00 hPa
  • 14-10-2018 00:00:00 | 14.30°C | Este |3.00 km/h | 75.00% | 0.00 hPa
  • 13-10-2018 23:00:00 | 14.90°C | Nordeste |5.00 km/h | 75.00% | 0.00 hPa
  • 13-10-2018 22:00:00 | 15.20°C | Este |5.00 km/h | 72.00% | 0.00 hPa
  • 13-10-2018 21:00:00 | 16.20°C | Este |7.00 km/h | 69.00% | 0.00 hPa
  • 13-10-2018 20:00:00 | 15.70°C | Este |6.00 km/h | 72.00% | 0.00 hPa